Time;durP1;ratioP1;P1;durP2;ratioP2;P2;SDS_P1;SDS_P2;PMS_P1;PMS_P2;Temp;Humidity;BMP_temperature;BMP_pressure;BME280_temperature;BME280_humidity;BME280_pressure;Samples;Min_cycle;Max_cycle;Signal;HPM_P1;HPM_P2
2021/04/20 00:00:26;;;;;;;3.25;2.35;;;20.30;48.70;;;;;;5051508;28;20053;-25
2021/04/20 00:02:52;;;;;;;3.38;2.60;;;20.20;48.60;;;;;;5053770;28;20131;-26
2021/04/20 00:05:17;;;;;;;2.53;2.35;;;20.30;48.70;;;;;;5049764;28;20140;-26
2021/04/20 00:07:43;;;;;;;3.45;2.40;;;20.20;48.60;;;;;;5048519;28;20056;-26
2021/04/20 00:10:10;;;;;;;3.17;2.38;;;20.20;48.70;;;;;;5038641;28;20041;-25
2021/04/20 00:12:36;;;;;;;2.45;2.20;;;20.20;48.80;;;;;;5049218;28;20049;-25
2021/04/20 00:15:05;;;;;;;2.50;2.30;;;20.20;48.80;;;;;;5037664;28;20099;-27
2021/04/20 00:17:30;;;;;;;2.30;2.10;;;20.20;48.80;;;;;;5047833;28;20049;-31
2021/04/20 00:19:56;;;;;;;2.28;2.13;;;20.20;48.70;;;;;;5050753;28;20045;-25
2021/04/20 00:22:21;;;;;;;2.22;2.03;;;20.20;48.70;;;;;;5048888;28;20095;-25
2021/04/20 00:24:47;;;;;;;2.03;1.85;;;20.20;48.80;;;;;;5044191;28;20041;-27
2021/04/20 00:27:12;;;;;;;2.00;1.90;;;20.20;48.80;;;;;;5042923;28;20068;-27
2021/04/20 00:29:38;;;;;;;2.50;2.28;;;20.20;48.70;;;;;;5050142;28;20041;-27
2021/04/20 00:32:04;;;;;;;2.20;2.10;;;20.20;48.80;;;;;;5044169;28;20050;-26
2021/04/20 00:34:29;;;;;;;3.28;2.00;;;20.20;48.80;;;;;;5040107;28;20521;-25
2021/04/20 00:36:55;;;;;;;3.15;2.10;;;20.20;48.80;;;;;;5045338;28;20049;-25
2021/04/20 00:39:20;;;;;;;2.72;1.80;;;20.20;48.80;;;;;;5050834;28;20041;-25
2021/04/20 00:41:59;;;;;;;3.17;1.83;;;20.20;48.70;;;;;;5050360;28;20126;-24
2021/04/20 00:44:24;;;;;;;2.00;1.90;;;20.20;48.80;;;;;;5046285;28;20532;-26
2021/04/20 00:46:50;;;;;;;2.50;1.92;;;20.10;48.80;;;;;;5047583;28;20052;-25
2021/04/20 00:49:15;;;;;;;2.40;2.22;;;20.10;48.70;;;;;;5039002;28;20489;-26
2021/04/20 00:51:41;;;;;;;2.13;1.83;;;20.20;48.70;;;;;;5048500;28;20060;-27
2021/04/20 00:54:06;;;;;;;2.30;2.10;;;20.10;48.70;;;;;;5049614;28;20532;-24
2021/04/20 00:56:32;;;;;;;2.40;2.25;;;20.10;48.70;;;;;;5045256;28;20094;-29
2021/04/20 00:58:57;;;;;;;3.83;2.38;;;20.10;48.70;;;;;;5041717;28;20049;-24
2021/04/20 01:01:23;;;;;;;3.28;2.40;;;20.20;49.40;;;;;;5038766;28;20136;-26
2021/04/20 01:03:49;;;;;;;2.30;2.10;;;20.10;48.80;;;;;;5050441;28;20513;-26
2021/04/20 01:06:14;;;;;;;2.58;2.30;;;20.10;48.80;;;;;;5050682;28;20424;-26
2021/04/20 01:08:40;;;;;;;2.20;2.00;;;20.10;48.80;;;;;;5046545;28;20057;-26
2021/04/20 01:11:05;;;;;;;2.17;1.95;;;20.00;48.70;;;;;;5049248;28;20094;-25
2021/04/20 01:13:32;;;;;;;2.05;1.90;;;20.00;48.80;;;;;;5049263;28;20052;-26
2021/04/20 01:15:58;;;;;;;2.03;1.90;;;20.10;48.90;;;;;;5048212;28;20059;-26
2021/04/20 01:18:31;;;;;;;2.22;2.05;;;20.00;48.80;;;;;;5039555;28;20038;-27
2021/04/20 01:20:58;;;;;;;1.83;1.73;;;20.00;49.50;;;;;;5042554;28;20049;-24
2021/04/20 01:23:49;;;;;;;2.40;2.30;;;20.00;48.90;;;;;;5046020;28;20087;-27
2021/04/20 01:26:15;;;;;;;2.08;1.98;;;20.00;48.90;;;;;;5044399;28;20445;-25
2021/04/20 01:28:42;;;;;;;1.77;1.67;;;20.00;48.80;;;;;;5041990;28;20067;-26
2021/04/20 01:31:07;;;;;;;2.40;2.17;;;20.00;48.90;;;;;;5047169;28;20090;-26
2021/04/20 01:33:33;;;;;;;2.42;2.20;;;20.00;48.80;;;;;;5047873;28;20053;-27
2021/04/20 01:35:59;;;;;;;2.47;2.38;;;20.00;48.80;;;;;;5045783;28;20149;-26
2021/04/20 01:38:24;;;;;;;2.20;2.10;;;20.00;48.80;;;;;;5046279;28;20048;-26
2021/04/20 01:40:50;;;;;;;2.05;1.95;;;20.00;48.80;;;;;;5042863;28;20041;-26
2021/04/20 01:43:15;;;;;;;2.20;2.10;;;20.00;48.80;;;;;;5048228;28;20071;-26
2021/04/20 01:45:42;;;;;;;2.25;2.05;;;20.00;48.80;;;;;;5046155;28;20127;-26
2021/04/20 01:48:09;;;;;;;2.53;2.42;;;20.00;49.00;;;;;;5050402;28;20044;-26
2021/04/20 01:50:34;;;;;;;1.90;1.80;;;19.90;48.80;;;;;;5047931;28;20048;-26
2021/04/20 01:53:00;;;;;;;2.30;2.10;;;19.90;49.70;;;;;;5047512;28;20504;-25
2021/04/20 01:55:25;;;;;;;2.17;2.08;;;19.90;49.00;;;;;;5049250;28;20052;-25
2021/04/20 01:57:53;;;;;;;3.20;2.38;;;19.80;49.10;;;;;;5042019;28;20080;-25
2021/04/20 02:00:19;;;;;;;2.17;2.03;;;19.80;49.10;;;;;;5032819;28;20379;-29
2021/04/20 02:02:45;;;;;;;2.70;2.50;;;19.80;49.10;;;;;;5050603;28;20044;-23
2021/04/20 02:05:11;;;;;;;2.08;1.90;;;19.80;49.10;;;;;;5049010;28;20045;-25
2021/04/20 02:07:36;;;;;;;2.20;2.10;;;19.80;49.10;;;;;;5047882;28;20045;-25
2021/04/20 02:10:09;;;;;;;2.22;2.03;;;19.80;49.60;;;;;;5047489;28;20051;-27
2021/04/20 02:12:38;;;;;;;1.95;1.85;;;19.80;49.20;;;;;;5030908;28;20104;-24
2021/04/20 02:15:05;;;;;;;2.13;2.03;;;19.90;49.10;;;;;;5045757;28;20041;-24
2021/04/20 02:17:31;;;;;;;2.25;2.10;;;19.80;49.10;;;;;;5045821;28;20127;-27
2021/04/20 02:19:56;;;;;;;3.72;1.88;;;19.90;49.10;;;;;;5048601;28;20118;-25
2021/04/20 02:22:22;;;;;;;2.10;2.00;;;19.80;49.10;;;;;;5045393;28;20037;-24
2021/04/20 02:24:47;;;;;;;3.70;2.40;;;19.80;49.10;;;;;;5042298;28;20160;-26
2021/04/20 02:27:13;;;;;;;2.28;2.17;;;19.80;49.10;;;;;;5043620;28;20107;-26
2021/04/20 02:29:39;;;;;;;2.38;2.17;;;19.80;49.10;;;;;;5046561;28;20039;-24
2021/04/20 02:32:05;;;;;;;2.20;2.00;;;19.80;49.20;;;;;;5048580;28;20041;-25
2021/04/20 02:34:31;;;;;;;2.30;2.10;;;19.80;49.20;;;;;;5041786;28;20045;-25
2021/04/20 02:36:56;;;;;;;2.00;1.90;;;19.80;49.20;;;;;;5047883;28;20516;-26
2021/04/20 02:39:22;;;;;;;2.20;2.10;;;19.80;49.20;;;;;;5048057;28;20037;-26
2021/04/20 02:41:48;;;;;;;2.20;2.10;;;19.80;49.20;;;;;;5042407;28;20590;-26
2021/04/20 02:44:14;;;;;;;2.13;2.03;;;19.80;49.10;;;;;;5046841;28;20049;-25
2021/04/20 02:46:41;;;;;;;2.00;1.90;;;19.80;49.20;;;;;;5045236;28;20467;-24
2021/04/20 02:49:07;;;;;;;2.70;2.50;;;19.80;49.20;;;;;;5044630;28;20090;-24
2021/04/20 02:51:36;;;;;;;2.35;2.25;;;19.80;49.30;;;;;;5030112;28;20387;-25
2021/04/20 02:54:02;;;;;;;1.90;1.80;;;19.80;49.20;;;;;;5046040;28;20487;-25
2021/04/20 02:56:27;;;;;;;1.83;1.73;;;19.80;49.20;;;;;;5035712;28;20128;-26
2021/04/20 02:58:53;;;;;;;2.30;2.20;;;19.80;49.30;;;;;;5035055;28;20122;-24
2021/04/20 03:01:24;;;;;;;3.25;2.03;;;19.80;49.20;;;;;;5047879;28;20045;-25
2021/04/20 03:03:49;;;;;;;1.90;1.80;;;19.80;49.30;;;;;;5046082;28;20107;-24
2021/04/20 03:06:15;;;;;;;2.08;1.98;;;19.80;49.30;;;;;;5049103;28;20040;-25
2021/04/20 03:08:44;;;;;;;2.15;2.05;;;19.70;49.40;;;;;;5044196;28;20045;-24
2021/04/20 03:11:21;;;;;;;1.90;1.80;;;19.70;49.40;;;;;;5044688;28;20067;-25
2021/04/20 03:13:46;;;;;;;2.00;1.90;;;19.70;49.40;;;;;;5045710;28;20071;-27
2021/04/20 03:16:13;;;;;;;2.08;1.98;;;19.70;49.40;;;;;;5047535;28;20044;-25
2021/04/20 03:18:38;;;;;;;1.90;1.80;;;19.70;49.50;;;;;;5043163;28;20044;-27
2021/04/20 03:21:07;;;;;;;1.95;1.85;;;19.70;49.50;;;;;;5045375;28;20405;-24
2021/04/20 03:23:33;;;;;;;2.00;1.90;;;19.70;49.40;;;;;;5042034;28;20053;-29
2021/04/20 03:25:59;;;;;;;2.03;1.92;;;19.70;49.50;;;;;;5045821;28;20044;-26
2021/04/20 03:28:24;;;;;;;2.42;2.30;;;19.70;49.40;;;;;;5046032;28;20124;-26
2021/04/20 03:30:51;;;;;;;1.95;1.85;;;19.70;49.40;;;;;;5029001;28;20037;-26
2021/04/20 03:33:19;;;;;;;2.22;2.05;;;19.70;49.50;;;;;;5047155;28;20563;-25
2021/04/20 03:36:07;;;;;;;1.73;1.63;;;19.70;49.50;;;;;;5051610;28;20052;-28
2021/04/20 03:38:42;;;;;;;1.98;1.83;;;19.70;49.50;;;;;;5043033;28;20042;-26
2021/04/20 03:41:14;;;;;;;2.13;2.03;;;19.70;49.50;;;;;;5046671;28;20041;-27
2021/04/20 03:43:42;;;;;;;2.25;2.15;;;19.70;49.50;;;;;;5046944;28;20094;-26
2021/04/20 03:46:09;;;;;;;1.92;1.83;;;19.70;49.60;;;;;;5051924;28;20045;-25
2021/04/20 03:48:44;;;;;;;2.03;1.92;;;19.70;49.60;;;;;;5033540;28;20045;-26
2021/04/20 03:51:13;;;;;;;2.63;1.88;;;19.60;49.60;;;;;;5051861;28;20064;-26
2021/04/20 03:53:41;;;;;;;2.10;1.90;;;19.70;49.60;;;;;;5045306;28;20057;-24
2021/04/20 03:56:07;;;;;;;1.98;1.88;;;19.70;49.60;;;;;;5048268;28;20037;-25
2021/04/20 03:58:33;;;;;;;1.98;1.88;;;19.60;50.30;;;;;;5045502;28;20069;-25
2021/04/20 04:01:03;;;;;;;1.95;1.83;;;19.60;49.70;;;;;;5033411;28;20079;-26
2021/04/20 04:03:29;;;;;;;1.95;1.85;;;19.60;49.70;;;;;;5049302;28;20044;-24
2021/04/20 04:05:54;;;;;;;1.90;1.80;;;19.60;49.80;;;;;;5019713;28;20049;-27
2021/04/20 04:08:20;;;;;;;2.35;2.13;;;19.60;49.80;;;;;;5017864;28;20045;-24
2021/04/20 04:10:49;;;;;;;1.90;1.80;;;19.60;49.80;;;;;;5040614;28;20040;-25
2021/04/20 04:13:15;;;;;;;2.00;1.90;;;19.60;49.80;;;;;;5050931;28;20049;-24
2021/04/20 04:15:41;;;;;;;1.95;1.77;;;19.60;49.80;;;;;;5049894;28;20045;-24
2021/04/20 04:18:09;;;;;;;1.95;1.85;;;19.60;49.80;;;;;;5037424;28;20063;-25
2021/04/20 04:20:35;;;;;;;1.90;1.80;;;19.60;49.80;;;;;;5047223;28;20064;-26
2021/04/20 04:23:03;;;;;;;2.22;2.03;;;19.60;49.80;;;;;;5044308;28;20042;-32
2021/04/20 04:25:33;;;;;;;2.17;1.98;;;19.60;49.80;;;;;;5041628;28;20044;-26
2021/04/20 04:28:00;;;;;;;1.90;1.80;;;19.60;49.80;;;;;;5048615;28;20512;-25
2021/04/20 04:30:26;;;;;;;3.47;1.80;;;19.60;49.90;;;;;;5044672;28;20089;-30
2021/04/20 04:32:51;;;;;;;2.63;2.42;;;19.60;50.00;;;;;;5034422;28;20049;-31
2021/04/20 04:35:17;;;;;;;2.05;1.95;;;19.50;49.90;;;;;;5050262;28;20627;-25
2021/04/20 04:37:43;;;;;;;1.98;1.88;;;19.50;49.90;;;;;;5047225;28;20134;-26
2021/04/20 04:40:09;;;;;;;2.25;2.15;;;19.60;49.90;;;;;;5048507;28;20041;-26
2021/04/20 04:42:35;;;;;;;1.85;1.75;;;19.50;50.00;;;;;;5047341;28;20178;-28
2021/04/20 04:45:02;;;;;;;1.77;1.67;;;19.50;50.00;;;;;;5052004;28;20068;-26
2021/04/20 04:47:28;;;;;;;2.30;1.92;;;19.50;49.90;;;;;;5050692;28;20526;-27
2021/04/20 04:49:55;;;;;;;2.38;2.17;;;19.50;50.00;;;;;;5048582;28;20397;-27
2021/04/20 04:52:20;;;;;;;1.80;1.70;;;19.50;50.00;;;;;;5045582;28;20047;-25
2021/04/20 04:54:46;;;;;;;2.10;1.83;;;19.50;50.10;;;;;;5046553;28;20494;-25
2021/04/20 04:57:12;;;;;;;2.00;1.90;;;19.50;50.00;;;;;;5045129;28;20100;-25
2021/04/20 04:59:37;;;;;;;2.22;2.13;;;19.50;50.00;;;;;;5018756;28;20049;-25
2021/04/20 05:02:03;;;;;;;1.83;1.73;;;19.50;50.10;;;;;;5040493;28;20046;-26
2021/04/20 05:04:29;;;;;;;2.13;1.92;;;19.50;50.10;;;;;;5043015;28;20045;-24
2021/04/20 05:06:54;;;;;;;2.92;1.90;;;19.50;50.10;;;;;;5042766;28;20045;-25
2021/04/20 05:09:21;;;;;;;1.90;1.80;;;19.50;50.10;;;;;;5050147;28;20094;-25
2021/04/20 05:11:47;;;;;;;1.85;1.75;;;19.50;50.00;;;;;;5048174;28;20037;-25
2021/04/20 05:14:18;;;;;;;2.00;1.90;;;19.50;50.10;;;;;;5048568;28;20067;-27
2021/04/20 05:16:49;;;;;;;2.40;2.20;;;19.50;50.20;;;;;;5047772;28;20155;-24
2021/04/20 05:19:47;;;;;;;2.05;1.85;;;19.50;50.10;;;;;;5041335;28;20045;-26
2021/04/20 05:22:13;;;;;;;2.03;1.80;;;19.50;50.10;;;;;;4968874;28;20053;-26
2021/04/20 05:24:39;;;;;;;1.90;1.80;;;19.50;50.10;;;;;;4953573;28;20407;-24
2021/04/20 05:27:06;;;;;;;2.15;1.92;;;19.50;50.20;;;;;;4971174;28;20046;-26
2021/04/20 05:29:32;;;;;;;1.77;1.67;;;19.50;50.10;;;;;;4970024;28;20074;-26
2021/04/20 05:31:57;;;;;;;2.13;2.03;;;19.40;50.30;;;;;;4969320;28;20050;-26
2021/04/20 05:34:23;;;;;;;1.98;1.88;;;19.40;50.20;;;;;;4969926;28;20591;-25
2021/04/20 05:36:49;;;;;;;2.10;2.00;;;19.50;50.20;;;;;;4966538;28;20112;-26
2021/04/20 05:39:15;;;;;;;2.13;2.03;;;19.50;50.20;;;;;;4970061;28;20546;-26
2021/04/20 05:41:41;;;;;;;1.85;1.75;;;19.50;50.90;;;;;;4969757;28;20531;-25
2021/04/20 05:44:09;;;;;;;1.70;1.60;;;19.50;50.90;;;;;;4947474;28;20090;-32
2021/04/20 05:46:35;;;;;;;1.98;1.88;;;19.40;50.30;;;;;;4961339;28;20413;-29
2021/04/20 05:49:01;;;;;;;2.20;2.10;;;19.50;50.20;;;;;;4960464;28;20407;-26
2021/04/20 05:51:27;;;;;;;2.10;2.00;;;19.50;50.80;;;;;;4952614;28;20507;-26
2021/04/20 05:53:53;;;;;;;1.90;1.80;;;19.40;50.20;;;;;;4960853;28;20145;-25
2021/04/20 05:56:19;;;;;;;2.08;1.98;;;19.50;50.20;;;;;;4961699;28;20035;-31
2021/04/20 05:58:45;;;;;;;2.10;2.00;;;19.50;50.60;;;;;;5035061;28;20128;-26
2021/04/20 06:01:11;;;;;;;2.25;2.15;;;19.50;50.30;;;;;;5047951;28;20040;-26
2021/04/20 06:03:38;;;;;;;1.70;1.60;;;19.50;50.30;;;;;;5047628;28;20398;-26
2021/04/20 06:06:05;;;;;;;1.98;1.88;;;19.50;50.30;;;;;;5044266;28;20069;-29
2021/04/20 06:08:31;;;;;;;1.80;1.70;;;19.40;50.30;;;;;;5046865;28;20128;-26
2021/04/20 06:10:57;;;;;;;1.77;1.67;;;19.40;50.30;;;;;;5046063;28;20072;-27
2021/04/20 06:13:25;;;;;;;1.88;1.77;;;19.40;50.30;;;;;;5027569;28;20036;-26
2021/04/20 06:15:51;;;;;;;1.83;1.73;;;19.50;50.40;;;;;;5051994;28;20432;-26
2021/04/20 06:18:16;;;;;;;2.30;2.10;;;19.40;50.30;;;;;;5053292;28;20059;-26
2021/04/20 06:20:42;;;;;;;2.08;1.98;;;19.50;50.30;;;;;;5047249;28;20037;-28
2021/04/20 06:23:07;;;;;;;2.00;1.90;;;19.50;50.40;;;;;;5045741;28;20110;-25
2021/04/20 06:25:33;;;;;;;2.47;1.92;;;19.50;50.20;;;;;;5035524;28;20040;-24
2021/04/20 06:27:58;;;;;;;2.13;2.03;;;19.50;50.40;;;;;;5045954;28;20044;-25
2021/04/20 06:30:24;;;;;;;2.17;1.98;;;19.50;50.20;;;;;;5044890;28;20036;-25
2021/04/20 06:32:50;;;;;;;1.80;1.70;;;19.50;50.30;;;;;;5055738;28;20048;-24
2021/04/20 06:35:18;;;;;;;1.98;1.67;;;19.50;50.40;;;;;;5042493;28;20818;-26
2021/04/20 06:37:46;;;;;;;2.10;2.00;;;19.50;50.30;;;;;;5041340;28;20044;-24
2021/04/20 06:40:18;;;;;;;2.33;2.13;;;19.50;50.40;;;;;;5022531;28;20492;-26
2021/04/20 06:42:46;;;;;;;1.80;1.70;;;19.40;50.30;;;;;;5042889;28;20065;-25
2021/04/20 06:45:15;;;;;;;1.98;1.88;;;19.50;50.40;;;;;;5049865;28;20451;-31
2021/04/20 06:48:06;;;;;;;2.15;2.05;;;19.50;50.30;;;;;;5044030;28;20060;-26
2021/04/20 06:50:31;;;;;;;2.30;2.20;;;19.50;50.50;;;;;;5029298;28;20048;-26
2021/04/20 06:52:57;;;;;;;2.10;2.00;;;19.50;50.40;;;;;;5038708;28;20049;-26
2021/04/20 06:55:33;;;;;;;2.35;2.25;;;19.50;50.40;;;;;;5046210;28;20041;-30
2021/04/20 06:58:04;;;;;;;2.05;1.95;;;19.50;50.60;;;;;;5041980;28;20045;-25
2021/04/20 07:00:32;;;;;;;2.40;2.20;;;19.40;50.80;;;;;;5046131;28;20047;-25
2021/04/20 07:03:07;;;;;;;2.30;2.17;;;19.40;50.80;;;;;;5048341;28;20044;-26
2021/04/20 07:05:42;;;;;;;3.17;1.92;;;19.40;50.80;;;;;;5049231;28;20041;-26
2021/04/20 07:08:44;;;;;;;4.53;2.03;;;19.40;50.80;;;;;;5024311;28;20082;-25
2021/04/20 07:11:12;;;;;;;3.38;2.10;;;19.40;50.90;;;;;;4984445;28;20054;-26
2021/04/20 07:13:37;;;;;;;2.00;1.90;;;19.50;51.00;;;;;;4984603;28;20423;-25
2021/04/20 07:16:29;;;;;;;2.45;2.28;;;19.40;51.10;;;;;;5004675;28;20044;-28
2021/04/20 07:19:12;;;;;;;2.92;2.60;;;19.50;51.00;;;;;;4998903;28;20046;-26
2021/04/20 07:22:06;;;;;;;3.03;2.72;;;19.50;51.20;;;;;;5004105;28;20538;-24
2021/04/20 07:25:07;;;;;;;2.22;2.13;;;19.50;50.90;;;;;;5004584;28;20034;-25
2021/04/20 07:27:35;;;;;;;2.90;2.70;;;19.50;50.90;;;;;;4962802;28;20042;-27
2021/04/20 07:30:09;;;;;;;2.90;2.70;;;19.50;50.80;;;;;;4966148;28;20102;-26
2021/04/20 07:33:00;;;;;;;3.00;2.10;;;19.60;50.80;;;;;;4950568;28;20431;-25
2021/04/20 07:35:32;;;;;;;2.90;2.63;;;19.60;50.80;;;;;;4950404;28;20042;-26
2021/04/20 07:37:59;;;;;;;4.30;2.33;;;19.60;50.80;;;;;;4964466;28;20597;-25
2021/04/20 07:40:41;;;;;;;2.92;2.72;;;19.60;50.70;;;;;;4949716;28;20700;-27
2021/04/20 07:43:33;;;;;;;3.15;2.40;;;19.60;51.00;;;;;;4964851;28;20608;-24
2021/04/20 07:46:20;;;;;;;2.42;2.22;;;19.50;51.20;;;;;;4957088;28;20081;-26
2021/04/20 07:48:51;;;;;;;4.05;2.42;;;19.40;52.20;;;;;;4971562;28;20503;-26
2021/04/20 07:51:26;;;;;;;2.10;2.00;;;19.50;51.80;;;;;;4977704;28;20050;-25
2021/04/20 07:54:22;;;;;;;2.45;2.25;;;19.50;51.80;;;;;;4985205;28;20054;-25
2021/04/20 07:57:15;;;;;;;2.47;2.38;;;19.70;51.80;;;;;;4983498;28;20134;-24
2021/04/20 07:59:44;;;;;;;2.10;2.00;;;19.70;52.00;;;;;;4981792;28;20053;-25
2021/04/20 08:02:22;;;;;;;2.67;2.47;;;19.70;52.00;;;;;;4978393;28;20050;-26
2021/04/20 08:04:59;;;;;;;3.05;2.17;;;19.70;52.20;;;;;;5028210;28;20036;-26
2021/04/20 08:07:29;;;;;;;2.55;2.40;;;19.80;52.50;;;;;;5026248;28;20071;-26
2021/04/20 08:09:55;;;;;;;3.40;2.40;;;19.60;52.70;;;;;;5044475;28;20033;-26
2021/04/20 08:12:25;;;;;;;3.70;2.30;;;19.70;52.30;;;;;;5038244;28;20045;-30
2021/04/20 08:14:59;;;;;;;3.80;2.55;;;19.70;52.40;;;;;;5041698;28;20069;-35
2021/04/20 08:17:43;;;;;;;3.22;2.80;;;19.70;52.50;;;;;;5035301;28;20128;-29
2021/04/20 08:20:10;;;;;;;2.85;2.60;;;19.70;52.80;;;;;;4693294;28;10000608;-30
2021/04/20 08:22:36;;;;;;;3.17;2.90;;;19.70;53.80;;;;;;5042828;28;20068;-29
2021/04/20 08:25:13;;;;;;;3.58;3.38;;;19.70;53.10;;;;;;5044664;28;20126;-30
2021/04/20 08:27:47;;;;;;;4.38;3.90;;;19.70;52.40;;;;;;5044644;28;20052;-29
2021/04/20 08:30:27;;;;;;;8.07;4.43;;;19.60;52.70;;;;;;5043258;28;20875;-30
2021/04/20 08:32:53;;;;;;;6.60;5.35;;;19.60;52.50;;;;;;5022481;28;20052;-30
2021/04/20 08:35:23;;;;;;;6.32;5.30;;;19.60;52.20;;;;;;5026663;28;20464;-30
2021/04/20 08:38:11;;;;;;;7.97;5.95;;;19.60;53.00;;;;;;5042254;28;20071;-30
2021/04/20 08:41:24;;;;;;;7.88;5.80;;;19.50;52.80;;;;;;5044223;28;20445;-31
2021/04/20 08:44:01;;;;;;;10.48;5.20;;;19.60;51.90;;;;;;5043478;28;20056;-28
2021/04/20 08:46:39;;;;;;;8.77;4.95;;;19.70;51.30;;;;;;5041394;28;20049;-30
2021/04/20 08:49:43;;;;;;;5.00;4.55;;;19.80;52.30;;;;;;5045558;28;20128;-30
2021/04/20 08:52:28;;;;;;;4.97;4.38;;;19.80;52.10;;;;;;5043207;28;20064;-30
2021/04/20 08:55:20;;;;;;;5.30;4.80;;;19.80;51.50;;;;;;5039661;28;20064;-29
2021/04/20 08:58:19;;;;;;;5.00;4.35;;;20.00;52.20;;;;;;5043213;28;20501;-30
2021/04/20 09:00:58;;;;;;;5.28;4.38;;;20.10;51.80;;;;;;5040559;28;20102;-30
2021/04/20 09:03:41;;;;;;;5.40;4.90;;;20.20;51.80;;;;;;5041025;28;20576;-30
2021/04/20 09:06:08;;;;;;;5.00;4.47;;;20.30;50.50;;;;;;5040299;28;20099;-30
2021/04/20 09:08:35;;;;;;;6.65;4.35;;;20.40;50.60;;;;;;5024292;28;20061;-30
2021/04/20 09:11:04;;;;;;;5.30;4.80;;;20.60;50.20;;;;;;5041576;28;20092;-40
2021/04/20 09:13:35;;;;;;;5.00;4.50;;;20.70;50.00;;;;;;5038001;28;20420;-28
2021/04/20 09:16:04;;;;;;;5.35;4.85;;;20.70;49.60;;;;;;5039231;28;20052;-28
2021/04/20 09:18:35;;;;;;;5.93;4.78;;;20.80;49.50;;;;;;5023449;28;20068;-27
2021/04/20 09:21:13;;;;;;;4.68;4.28;;;21.00;49.30;;;;;;5041444;28;20044;-28
2021/04/20 09:24:06;;;;;;;8.25;4.80;;;21.00;49.20;;;;;;5046156;28;20905;-28
2021/04/20 09:26:41;;;;;;;5.45;4.25;;;21.10;48.70;;;;;;5037468;28;20145;-27
2021/04/20 09:29:38;;;;;;;5.45;4.60;;;21.10;48.50;;;;;;5041224;28;20044;-28
2021/04/20 09:32:08;;;;;;;5.20;4.70;;;21.10;48.40;;;;;;5022306;28;20052;-30
2021/04/20 09:34:38;;;;;;;5.03;4.63;;;21.10;48.40;;;;;;5022918;28;20048;-28
2021/04/20 09:37:04;;;;;;;7.38;5.50;;;21.10;48.60;;;;;;5039602;28;20527;-27
2021/04/20 09:39:34;;;;;;;5.43;4.90;;;21.20;48.30;;;;;;5040366;28;20037;-26
2021/04/20 09:42:00;;;;;;;6.88;4.78;;;21.20;48.70;;;;;;5043841;28;20061;-27
2021/04/20 09:44:38;;;;;;;5.97;5.47;;;21.20;48.00;;;;;;5023912;28;20156;-28
2021/04/20 09:47:37;;;;;;;5.93;5.32;;;21.20;48.10;;;;;;5039604;28;20091;-26
2021/04/20 09:50:12;;;;;;;5.72;5.13;;;21.30;48.50;;;;;;5039464;28;20045;-28
2021/04/20 09:53:08;;;;;;;7.43;5.80;;;21.30;48.30;;;;;;5039658;28;20076;-26
2021/04/20 09:55:53;;;;;;;6.03;5.43;;;21.30;47.80;;;;;;5039328;28;20075;-25
2021/04/20 09:58:20;;;;;;;6.47;5.63;;;21.40;47.40;;;;;;5035812;28;20569;-26
2021/04/20 10:00:46;;;;;;;8.55;5.28;;;21.30;47.20;;;;;;5038211;28;20501;-27
2021/04/20 10:03:35;;;;;;;6.03;5.47;;;21.40;47.70;;;;;;5036530;28;20053;-25
2021/04/20 10:06:23;;;;;;;6.45;5.70;;;21.40;47.80;;;;;;5041678;28;20072;-27
2021/04/20 10:09:16;;;;;;;6.25;5.18;;;21.50;47.60;;;;;;5047667;28;20052;-26
2021/04/20 10:12:04;;;;;;;5.05;4.55;;;21.60;47.50;;;;;;5045738;28;20056;-30
2021/04/20 10:14:53;;;;;;;5.90;4.65;;;21.60;48.00;;;;;;5045844;28;20045;-28
2021/04/20 10:17:22;;;;;;;5.63;5.03;;;21.60;48.10;;;;;;5039931;28;20331;-30
2021/04/20 10:20:06;;;;;;;5.78;5.07;;;21.60;48.20;;;;;;5038523;28;20045;-27
2021/04/20 10:22:46;;;;;;;5.97;5.40;;;21.60;47.80;;;;;;5042251;28;20595;-28
2021/04/20 10:25:18;;;;;;;6.13;4.95;;;21.70;47.60;;;;;;5038520;28;20045;-28
2021/04/20 10:27:44;;;;;;;7.45;5.57;;;21.80;47.70;;;;;;5041218;28;20671;-27
2021/04/20 10:30:14;;;;;;;7.47;5.85;;;21.80;48.10;;;;;;5041107;28;20196;-25
2021/04/20 10:32:44;;;;;;;6.15;5.63;;;21.70;47.50;;;;;;5041357;28;20053;-27
2021/04/20 10:35:14;;;;;;;6.57;5.70;;;21.80;47.50;;;;;;5040731;28;20048;-27
2021/04/20 10:37:41;;;;;;;6.03;5.50;;;21.70;47.40;;;;;;5035197;28;20053;-28
2021/04/20 10:40:08;;;;;;;6.15;5.63;;;21.80;47.70;;;;;;5042997;28;20059;-27
2021/04/20 10:42:34;;;;;;;5.97;5.55;;;21.90;47.40;;;;;;5039116;28;20092;-27
2021/04/20 10:44:59;;;;;;;7.20;6.50;;;21.90;47.30;;;;;;5041275;28;20045;-27
2021/04/20 10:47:25;;;;;;;6.78;6.10;;;22.00;47.00;;;;;;5022877;28;20501;-30
2021/04/20 10:49:52;;;;;;;7.00;5.15;;;22.10;46.20;;;;;;5025854;28;20394;-30
2021/04/20 10:52:18;;;;;;;5.70;5.20;;;22.10;46.30;;;;;;5041508;28;20094;-31
2021/04/20 10:54:44;;;;;;;6.70;6.07;;;22.10;46.30;;;;;;5042852;28;20421;-31
2021/04/20 10:57:11;;;;;;;5.72;5.22;;;22.10;45.40;;;;;;5037820;28;20045;-31
2021/04/20 10:59:39;;;;;;;5.88;5.38;;;22.10;44.90;;;;;;5043758;28;20084;-29
2021/04/20 11:02:17;;;;;;;5.53;5.13;;;22.20;45.10;;;;;;5022676;28;20509;-30
2021/04/20 11:04:43;;;;;;;6.25;5.63;;;22.20;44.50;;;;;;5023253;28;20041;-30
2021/04/20 11:07:17;;;;;;;7.43;5.63;;;22.20;44.60;;;;;;5017921;28;20049;-29
2021/04/20 11:09:43;;;;;;;6.07;5.53;;;22.20;43.80;;;;;;5037020;28;20099;-31
2021/04/20 11:12:19;;;;;;;5.72;5.22;;;22.20;42.50;;;;;;5029469;28;20145;-33
2021/04/20 11:14:49;;;;;;;5.88;5.28;;;22.10;42.70;;;;;;5035585;28;20047;-31
2021/04/20 11:17:28;;;;;;;5.75;5.20;;;22.00;42.40;;;;;;4692595;28;10000089;-34
2021/04/20 11:19:55;;;;;;;5.80;5.20;;;22.00;42.50;;;;;;5039242;28;20045;-31
2021/04/20 11:22:21;;;;;;;6.03;5.45;;;22.00;41.80;;;;;;5041484;28;20052;-30
2021/04/20 11:24:51;;;;;;;5.65;4.70;;;21.90;41.40;;;;;;5027932;28;20044;-29
2021/04/20 11:27:17;;;;;;;4.90;4.57;;;21.90;40.30;;;;;;5045005;28;20041;-31
2021/04/20 11:29:57;;;;;;;5.00;4.70;;;21.60;39.50;;;;;;5046871;28;20041;-30
2021/04/20 11:32:24;;;;;;;4.43;3.95;;;21.50;41.40;;;;;;5029415;28;20126;-35
2021/04/20 11:34:51;;;;;;;4.55;4.15;;;21.60;40.50;;;;;;5048894;28;20045;-28
2021/04/20 11:37:21;;;;;;;4.88;4.05;;;21.80;39.80;;;;;;5045375;28;20536;-30
2021/04/20 11:40:04;;;;;;;5.00;4.65;;;21.60;41.10;;;;;;5046352;28;20099;-30
2021/04/20 11:42:38;;;;;;;4.85;4.45;;;21.60;41.20;;;;;;5046267;28;20589;-30
2021/04/20 11:45:16;;;;;;;4.35;3.40;;;21.50;40.70;;;;;;5029197;28;20040;-29
2021/04/20 11:48:14;;;;;;;3.85;3.55;;;21.60;41.50;;;;;;5047144;28;20126;-26
2021/04/20 11:50:53;;;;;;;4.18;3.88;;;21.70;41.00;;;;;;5031361;28;20053;-26
2021/04/20 11:53:19;;;;;;;4.30;3.88;;;21.80;40.50;;;;;;5030607;28;20594;-26
2021/04/20 11:55:46;;;;;;;4.13;3.78;;;21.70;39.60;;;;;;5033329;28;20040;-27
2021/04/20 11:58:27;;;;;;;4.10;3.72;;;21.70;40.00;;;;;;5033604;28;20066;-34
2021/04/20 12:00:59;;;;;;;5.28;3.72;;;21.70;39.50;;;;;;5047197;28;20060;-27
2021/04/20 12:03:25;;;;;;;3.45;3.25;;;21.70;39.40;;;;;;5048829;28;20171;-28
2021/04/20 12:05:55;;;;;;;3.67;3.40;;;21.60;39.30;;;;;;5051410;28;20139;-27
2021/04/20 12:08:25;;;;;;;3.55;3.25;;;21.60;39.30;;;;;;5050325;28;20098;-28
2021/04/20 12:10:52;;;;;;;4.80;3.90;;;21.40;40.10;;;;;;5050284;28;20182;-26
2021/04/20 12:13:25;;;;;;;4.30;4.00;;;21.40;40.20;;;;;;5046367;28;20044;-27
2021/04/20 12:15:58;;;;;;;4.18;3.88;;;21.30;39.80;;;;;;5045665;28;20600;-27
2021/04/20 12:18:25;;;;;;;4.22;3.92;;;21.40;39.40;;;;;;5050089;28;20045;-28
2021/04/20 12:20:51;;;;;;;3.53;3.33;;;21.30;40.20;;;;;;5050980;28;20040;-27
2021/04/20 12:23:21;;;;;;;4.50;4.13;;;21.30;40.20;;;;;;5047193;28;20048;-27
2021/04/20 12:25:50;;;;;;;4.85;3.88;;;21.30;39.60;;;;;;5049484;28;20033;-28
2021/04/20 12:28:17;;;;;;;4.15;3.75;;;21.20;40.60;;;;;;5049006;28;20073;-40
2021/04/20 12:30:46;;;;;;;3.63;3.42;;;20.90;40.50;;;;;;5048886;28;20412;-30
2021/04/20 12:33:19;;;;;;;4.53;4.05;;;20.70;40.70;;;;;;5050105;28;20435;-30
2021/04/20 12:35:45;;;;;;;4.50;3.60;;;20.70;41.30;;;;;;5050459;28;20065;-29
2021/04/20 12:38:11;;;;;;;3.85;3.55;;;20.70;41.50;;;;;;5048859;28;20056;-30
2021/04/20 12:40:36;;;;;;;3.58;3.28;;;20.70;41.50;;;;;;5049239;28;20040;-29
2021/04/20 12:43:02;;;;;;;4.00;3.60;;;20.60;41.90;;;;;;5050056;28;20047;-31
2021/04/20 12:45:32;;;;;;;3.55;3.20;;;20.50;42.10;;;;;;5048940;28;20090;-30
2021/04/20 12:47:58;;;;;;;3.63;3.33;;;20.50;42.40;;;;;;5051380;28;20052;-31
2021/04/20 12:50:41;;;;;;;3.58;3.30;;;20.40;42.70;;;;;;5030523;28;20134;-30
2021/04/20 12:53:06;;;;;;;3.92;3.35;;;20.40;42.70;;;;;;5030328;28;20037;-29
2021/04/20 12:55:33;;;;;;;3.28;3.08;;;20.40;42.90;;;;;;5050992;28;20049;-30
2021/04/20 12:58:07;;;;;;;3.55;3.25;;;20.40;43.10;;;;;;5049501;28;20071;-30
2021/04/20 13:00:33;;;;;;;;;;;20.50;42.50;;;;;;5046238;28;20049;-27
2021/04/20 13:02:59;;;;;;;3.33;3.13;;;20.60;42.30;;;;;;5066562;28;19966;-26
2021/04/20 13:05:43;;;;;;;5.07;3.20;;;20.70;42.20;;;;;;5048534;28;20041;-28